sensor_id;sensor_type;location;lat;lon;timestamp;pressure;altitude;pressure_sealevel;temperature
67599;BMP280;62026;39.230;9.122;2022-12-18T00:03:55;101783.94;;;14.79
67599;BMP280;62026;39.230;9.122;2022-12-18T00:06:24;101796.38;;;14.85
67599;BMP280;62026;39.230;9.122;2022-12-18T00:08:50;101802.53;;;14.85
67599;BMP280;62026;39.230;9.122;2022-12-18T00:11:23;101803.16;;;14.81
67599;BMP280;62026;39.230;9.122;2022-12-18T00:13:51;101797.66;;;14.82
67599;BMP280;62026;39.230;9.122;2022-12-18T00:16:22;101789.88;;;14.74
67599;BMP280;62026;39.230;9.122;2022-12-18T00:18:51;101808.69;;;14.86
67599;BMP280;62026;39.230;9.122;2022-12-18T00:21:18;101798.06;;;14.79
67599;BMP280;62026;39.230;9.122;2022-12-18T00:23:46;101794.16;;;14.88
67599;BMP280;62026;39.230;9.122;2022-12-18T00:26:33;101782.50;;;14.83
67599;BMP280;62026;39.230;9.122;2022-12-18T00:29:13;101791.06;;;14.85
67599;BMP280;62026;39.230;9.122;2022-12-18T00:31:41;101784.16;;;14.77
67599;BMP280;62026;39.230;9.122;2022-12-18T00:34:11;101794.78;;;14.84
67599;BMP280;62026;39.230;9.122;2022-12-18T00:36:40;101793.97;;;14.83
67599;BMP280;62026;39.230;9.122;2022-12-18T00:39:07;101796.00;;;14.81
67599;BMP280;62026;39.230;9.122;2022-12-18T00:41:33;101796.84;;;14.75
67599;BMP280;62026;39.230;9.122;2022-12-18T00:44:19;101804.59;;;14.83
67599;BMP280;62026;39.230;9.122;2022-12-18T00:46:47;101798.06;;;14.79
67599;BMP280;62026;39.230;9.122;2022-12-18T00:49:14;101816.66;;;14.79
67599;BMP280;62026;39.230;9.122;2022-12-18T00:51:41;101808.28;;;14.82
67599;BMP280;62026;39.230;9.122;2022-12-18T00:54:07;101806.44;;;14.76
67599;BMP280;62026;39.230;9.122;2022-12-18T00:56:35;101805.00;;;14.80
67599;BMP280;62026;39.230;9.122;2022-12-18T00:59:01;101803.38;;;14.79
67599;BMP280;62026;39.230;9.122;2022-12-18T01:01:27;101807.09;;;14.78
67599;BMP280;62026;39.230;9.122;2022-12-18T01:03:54;101816.06;;;14.77
67599;BMP280;62026;39.230;9.122;2022-12-18T01:06:20;101789.09;;;14.67
67599;BMP280;62026;39.230;9.122;2022-12-18T01:08:46;101815.44;;;14.75
67599;BMP280;62026;39.230;9.122;2022-12-18T01:11:17;101816.47;;;14.74
67599;BMP280;62026;39.230;9.122;2022-12-18T01:13:44;101824.69;;;14.72
67599;BMP280;62026;39.230;9.122;2022-12-18T01:16:15;101816.91;;;14.64
67599;BMP280;62026;39.230;9.122;2022-12-18T01:18:42;101822.63;;;14.61
67599;BMP280;62026;39.230;9.122;2022-12-18T01:21:14;101832.88;;;14.64
67599;BMP280;62026;39.230;9.122;2022-12-18T01:23:41;101821.44;;;14.57
67599;BMP280;62026;39.230;9.122;2022-12-18T01:26:11;101836.16;;;14.60
67599;BMP280;62026;39.230;9.122;2022-12-18T01:28:38;101834.31;;;14.60
67599;BMP280;62026;39.230;9.122;2022-12-18T01:33:46;101825.94;;;14.43
67599;BMP280;62026;39.230;9.122;2022-12-18T01:36:26;101836.34;;;14.45
67599;BMP280;62026;39.230;9.122;2022-12-18T01:38:54;101854.94;;;14.52
67599;BMP280;62026;39.230;9.122;2022-12-18T01:41:26;101857.00;;;14.50
67599;BMP280;62026;39.230;9.122;2022-12-18T01:44:55;101870.69;;;14.47
67599;BMP280;62026;39.230;9.122;2022-12-18T01:47:46;101861.53;;;14.43
67599;BMP280;62026;39.230;9.122;2022-12-18T01:50:37;101872.16;;;14.43
67599;BMP280;62026;39.230;9.122;2022-12-18T01:53:20;101865.19;;;14.28
67599;BMP280;62026;39.230;9.122;2022-12-18T01:55:55;101867.66;;;14.36
67599;BMP280;62026;39.230;9.122;2022-12-18T01:59:05;101872.97;;;14.36
67599;BMP280;62026;39.230;9.122;2022-12-18T02:01:33;101863.16;;;14.30
67599;BMP280;62026;39.230;9.122;2022-12-18T02:04:24;101882.16;;;14.34
67599;BMP280;62026;39.230;9.122;2022-12-18T02:10:00;101888.06;;;14.36
67599;BMP280;62026;39.230;9.122;2022-12-18T02:13:01;101872.94;;;14.30
67599;BMP280;62026;39.230;9.122;2022-12-18T02:15:40;101889.72;;;14.30
67599;BMP280;62026;39.230;9.122;2022-12-18T02:18:19;101876.41;;;14.30
67599;BMP280;62026;39.230;9.122;2022-12-18T02:23:40;101883.16;;;14.26
67599;BMP280;62026;39.230;9.122;2022-12-18T02:29:12;101889.91;;;14.22
67599;BMP280;62026;39.230;9.122;2022-12-18T02:31:49;101884.41;;;14.17
67599;BMP280;62026;39.230;9.122;2022-12-18T02:34:18;101905.22;;;14.20
67599;BMP280;62026;39.230;9.122;2022-12-18T02:36:47;101907.06;;;14.20
67599;BMP280;62026;39.230;9.122;2022-12-18T02:39:17;101908.88;;;14.19
67599;BMP280;62026;39.230;9.122;2022-12-18T02:41:56;101908.06;;;14.19
67599;BMP280;62026;39.230;9.122;2022-12-18T02:44:24;101907.28;;;14.18
67599;BMP280;62026;39.230;9.122;2022-12-18T02:46:53;101909.31;;;14.16
67599;BMP280;62026;39.230;9.122;2022-12-18T02:56:18;101917.47;;;14.15
67599;BMP280;62026;39.230;9.122;2022-12-18T03:01:48;101921.94;;;14.14
67599;BMP280;62026;39.230;9.122;2022-12-18T03:04:48;101926.88;;;14.11
67599;BMP280;62026;39.230;9.122;2022-12-18T03:07:26;101922.59;;;14.10
67599;BMP280;62026;39.230;9.122;2022-12-18T03:09:56;101908.44;;;13.96
67599;BMP280;62026;39.230;9.122;2022-12-18T03:12:38;101912.94;;;13.95
67599;BMP280;62026;39.230;9.122;2022-12-18T03:15:22;101936.22;;;14.06
67599;BMP280;62026;39.230;9.122;2022-12-18T03:18:05;101938.09;;;14.06
67599;BMP280;62026;39.230;9.122;2022-12-18T03:20:34;101930.09;;;13.99
67599;BMP280;62026;39.230;9.122;2022-12-18T03:23:11;101944.81;;;14.02
67599;BMP280;62026;39.230;9.122;2022-12-18T03:25:44;101942.16;;;14.02
67599;BMP280;62026;39.230;9.122;2022-12-18T03:28:19;101940.75;;;14.06
67599;BMP280;62026;39.230;9.122;2022-12-18T03:30:54;101943.16;;;14.07
67599;BMP280;62026;39.230;9.122;2022-12-18T03:33:46;101950.16;;;14.08
67599;BMP280;62026;39.230;9.122;2022-12-18T03:36:14;101939.91;;;13.99
67599;BMP280;62026;39.230;9.122;2022-12-18T03:38:40;101953.41;;;14.04
67599;BMP280;62026;39.230;9.122;2022-12-18T03:41:43;101959.75;;;14.10
67599;BMP280;62026;39.230;9.122;2022-12-18T03:45:24;101966.91;;;14.09
67599;BMP280;62026;39.230;9.122;2022-12-18T03:50:51;101967.31;;;14.06
67599;BMP280;62026;39.230;9.122;2022-12-18T03:56:29;101971.38;;;14.02
67599;BMP280;62026;39.230;9.122;2022-12-18T03:59:02;101963.97;;;13.91
67599;BMP280;62026;39.230;9.122;2022-12-18T04:01:39;101982.78;;;13.96
67599;BMP280;62026;39.230;9.122;2022-12-18T04:04:08;101983.16;;;13.93
67599;BMP280;62026;39.230;9.122;2022-12-18T04:06:40;101984.38;;;13.90
67599;BMP280;62026;39.230;9.122;2022-12-18T04:09:09;101994.19;;;13.90
67599;BMP280;62026;39.230;9.122;2022-12-18T04:11:41;101996.22;;;13.88
67599;BMP280;62026;39.230;9.122;2022-12-18T04:14:11;102000.72;;;13.87
67599;BMP280;62026;39.230;9.122;2022-12-18T04:16:37;101996.59;;;13.85
67599;BMP280;62026;39.230;9.122;2022-12-18T04:19:05;101999.06;;;13.80
67599;BMP280;62026;39.230;9.122;2022-12-18T04:21:37;102002.31;;;13.82
67599;BMP280;62026;39.230;9.122;2022-12-18T04:24:04;102008.03;;;13.79
67599;BMP280;62026;39.230;9.122;2022-12-18T04:26:32;102018.00;;;13.77
67599;BMP280;62026;39.230;9.122;2022-12-18T04:29:19;102012.09;;;13.74
67599;BMP280;62026;39.230;9.122;2022-12-18T04:31:45;102020.84;;;13.75
67599;BMP280;62026;39.230;9.122;2022-12-18T04:34:11;102019.00;;;13.75
67599;BMP280;62026;39.230;9.122;2022-12-18T04:36:42;102012.06;;;13.68
67599;BMP280;62026;39.230;9.122;2022-12-18T04:39:08;102027.16;;;13.67
67599;BMP280;62026;39.230;9.122;2022-12-18T04:41:34;102018.34;;;13.60
67599;BMP280;62026;39.230;9.122;2022-12-18T04:44:01;102029.56;;;13.62
67599;BMP280;62026;39.230;9.122;2022-12-18T04:46:27;102033.63;;;13.58
67599;BMP280;62026;39.230;9.122;2022-12-18T04:48:53;102033.25;;;13.61
67599;BMP280;62026;39.230;9.122;2022-12-18T04:51:19;102033.44;;;13.60
67599;BMP280;62026;39.230;9.122;2022-12-18T04:53:45;102035.28;;;13.59
67599;BMP280;62026;39.230;9.122;2022-12-18T04:56:14;102031.56;;;13.54
67599;BMP280;62026;39.230;9.122;2022-12-18T04:58:43;102028.88;;;13.47
67599;BMP280;62026;39.230;9.122;2022-12-18T05:01:12;102030.75;;;13.53
67599;BMP280;62026;39.230;9.122;2022-12-18T05:03:39;102030.75;;;13.53
67599;BMP280;62026;39.230;9.122;2022-12-18T05:06:07;102030.75;;;13.53
67599;BMP280;62026;39.230;9.122;2022-12-18T05:08:33;102023.94;;;13.44
67599;BMP280;62026;39.230;9.122;2022-12-18T05:11:09;102034.81;;;13.49
67599;BMP280;62026;39.230;9.122;2022-12-18T05:13:37;102046.25;;;13.50
67599;BMP280;62026;39.230;9.122;2022-12-18T05:16:05;102058.69;;;13.49
67599;BMP280;62026;39.230;9.122;2022-12-18T05:18:31;102055.19;;;13.42
67599;BMP280;62026;39.230;9.122;2022-12-18T05:20:57;102069.91;;;13.51
67599;BMP280;62026;39.230;9.122;2022-12-18T05:23:24;102050.22;;;13.39
67599;BMP280;62026;39.230;9.122;2022-12-18T05:25:59;102078.00;;;13.43
67599;BMP280;62026;39.230;9.122;2022-12-18T05:28:28;102079.09;;;13.49
67599;BMP280;62026;39.230;9.122;2022-12-18T05:30:58;102087.22;;;13.47
67599;BMP280;62026;39.230;9.122;2022-12-18T05:33:29;102090.25;;;13.44
67599;BMP280;62026;39.230;9.122;2022-12-18T05:35:58;102085.31;;;13.34
67599;BMP280;62026;39.230;9.122;2022-12-18T05:38:26;102085.13;;;13.36
67599;BMP280;62026;39.230;9.122;2022-12-18T05:40:53;102094.69;;;13.37
67599;BMP280;62026;39.230;9.122;2022-12-18T05:43:20;102100.41;;;13.34
67599;BMP280;62026;39.230;9.122;2022-12-18T05:45:49;102083.56;;;13.20
67599;BMP280;62026;39.230;9.122;2022-12-18T05:48:16;102098.75;;;13.33
67599;BMP280;62026;39.230;9.122;2022-12-18T05:50:44;102098.91;;;13.31
67599;BMP280;62026;39.230;9.122;2022-12-18T05:53:16;102108.50;;;13.26
67599;BMP280;62026;39.230;9.122;2022-12-18T05:55:43;102115.78;;;13.24
67599;BMP280;62026;39.230;9.122;2022-12-18T05:58:11;102119.91;;;13.26
67599;BMP280;62026;39.230;9.122;2022-12-18T06:00:43;102119.09;;;13.26
67599;BMP280;62026;39.230;9.122;2022-12-18T06:03:11;102119.09;;;13.26
67599;BMP280;62026;39.230;9.122;2022-12-18T06:05:41;102120.75;;;13.27
67599;BMP280;62026;39.230;9.122;2022-12-18T06:08:08;102133.75;;;13.22
67599;BMP280;62026;39.230;9.122;2022-12-18T06:10:35;102123.31;;;13.20
67599;BMP280;62026;39.230;9.122;2022-12-18T06:13:01;102117.44;;;13.25
67599;BMP280;62026;39.230;9.122;2022-12-18T06:15:27;102132.97;;;13.28
67599;BMP280;62026;39.230;9.122;2022-12-18T06:17:53;102144.78;;;13.25
67599;BMP280;62026;39.230;9.122;2022-12-18T06:20:20;102151.47;;;13.21
67599;BMP280;62026;39.230;9.122;2022-12-18T06:22:46;102153.31;;;13.21
67599;BMP280;62026;39.230;9.122;2022-12-18T06:25:12;102161.81;;;13.16
67599;BMP280;62026;39.230;9.122;2022-12-18T06:27:38;102169.97;;;13.15
67599;BMP280;62026;39.230;9.122;2022-12-18T06:30:05;102159.38;;;13.15
67599;BMP280;62026;39.230;9.122;2022-12-18T06:32:31;102153.44;;;13.13
67599;BMP280;62026;39.230;9.122;2022-12-18T06:34:57;102157.91;;;13.12
67599;BMP280;62026;39.230;9.122;2022-12-18T06:37:23;102166.09;;;13.11
67599;BMP280;62026;39.230;9.122;2022-12-18T06:39:53;102168.81;;;13.17
67599;BMP280;62026;39.230;9.122;2022-12-18T06:42:19;102169.34;;;13.13
67599;BMP280;62026;39.230;9.122;2022-12-18T06:44:45;102170.16;;;13.13
67599;BMP280;62026;39.230;9.122;2022-12-18T06:47:11;102177.34;;;13.19
67599;BMP280;62026;39.230;9.122;2022-12-18T06:49:37;102169.84;;;13.23
67599;BMP280;62026;39.230;9.122;2022-12-18T06:52:03;102186.16;;;13.41
67599;BMP280;62026;39.230;9.122;2022-12-18T06:54:29;102185.75;;;13.44
67599;BMP280;62026;39.230;9.122;2022-12-18T06:56:55;102185.91;;;13.36
67599;BMP280;62026;39.230;9.122;2022-12-18T06:59:21;102192.69;;;13.24
67599;BMP280;62026;39.230;9.122;2022-12-18T07:01:47;102183.59;;;13.12
67599;BMP280;62026;39.230;9.122;2022-12-18T07:04:12;102199.78;;;13.17
67599;BMP280;62026;39.230;9.122;2022-12-18T07:06:38;102204.03;;;13.32
67599;BMP280;62026;39.230;9.122;2022-12-18T07:09:04;102215.69;;;13.59
67599;BMP280;62026;39.230;9.122;2022-12-18T07:11:33;102210.50;;;13.72
67599;BMP280;62026;39.230;9.122;2022-12-18T07:13:59;102219.16;;;13.81
67599;BMP280;62026;39.230;9.122;2022-12-18T07:16:25;102215.13;;;13.92
67599;BMP280;62026;39.230;9.122;2022-12-18T07:18:55;102226.25;;;14.02
67599;BMP280;62026;39.230;9.122;2022-12-18T07:21:24;102227.28;;;14.07
67599;BMP280;62026;39.230;9.122;2022-12-18T07:23:50;102230.19;;;14.13
67599;BMP280;62026;39.230;9.122;2022-12-18T07:26:19;102233.94;;;14.18
67599;BMP280;62026;39.230;9.122;2022-12-18T07:28:46;102240.31;;;14.24
67599;BMP280;62026;39.230;9.122;2022-12-18T07:31:17;102240.94;;;14.32
67599;BMP280;62026;39.230;9.122;2022-12-18T07:33:44;102235.25;;;14.35
67599;BMP280;62026;39.230;9.122;2022-12-18T07:36:10;102249.41;;;14.49
67599;BMP280;62026;39.230;9.122;2022-12-18T07:38:37;102253.38;;;14.60
67599;BMP280;62026;39.230;9.122;2022-12-18T07:41:10;102246.78;;;14.56
67599;BMP280;62026;39.230;9.122;2022-12-18T07:43:37;102249.91;;;14.66
67599;BMP280;62026;39.230;9.122;2022-12-18T07:46:04;102244.03;;;14.77
67599;BMP280;62026;39.230;9.122;2022-12-18T07:48:30;102239.56;;;14.78
67599;BMP280;62026;39.230;9.122;2022-12-18T07:51:04;102242.59;;;14.74
67599;BMP280;62026;39.230;9.122;2022-12-18T07:53:32;102240.81;;;14.88
67599;BMP280;62026;39.230;9.122;2022-12-18T07:56:06;102245.09;;;14.89
67599;BMP280;62026;39.230;9.122;2022-12-18T07:58:33;102238.97;;;14.89
67599;BMP280;62026;39.230;9.122;2022-12-18T08:01:12;102246.78;;;15.03
67599;BMP280;62026;39.230;9.122;2022-12-18T08:03:39;102239.88;;;15.16
67599;BMP280;62026;39.230;9.122;2022-12-18T08:06:08;102242.75;;;15.47
67599;BMP280;62026;39.230;9.122;2022-12-18T08:08:35;102249.72;;;15.88
67599;BMP280;62026;39.230;9.122;2022-12-18T08:11:01;102251.78;;;15.59
67599;BMP280;62026;39.230;9.122;2022-12-18T08:13:28;102248.28;;;15.59
67599;BMP280;62026;39.230;9.122;2022-12-18T08:16:07;102260.38;;;15.68
67599;BMP280;62026;39.230;9.122;2022-12-18T08:18:36;102272.28;;;15.85
67599;BMP280;62026;39.230;9.122;2022-12-18T08:21:17;102275.13;;;16.10
67599;BMP280;62026;39.230;9.122;2022-12-18T08:23:44;102282.06;;;16.18
67599;BMP280;62026;39.230;9.122;2022-12-18T08:26:11;102268.50;;;16.39
67599;BMP280;62026;39.230;9.122;2022-12-18T08:28:38;102276.31;;;16.27
67599;BMP280;62026;39.230;9.122;2022-12-18T08:31:04;102284.25;;;16.40
67599;BMP280;62026;39.230;9.122;2022-12-18T08:33:31;102283.44;;;16.46
67599;BMP280;62026;39.230;9.122;2022-12-18T08:35:59;102279.81;;;16.79
67599;BMP280;62026;39.230;9.122;2022-12-18T08:38:25;102285.63;;;16.69
67599;BMP280;62026;39.230;9.122;2022-12-18T08:41:03;102283.50;;;16.84
67599;BMP280;62026;39.230;9.122;2022-12-18T08:43:29;102295.53;;;17.00
67599;BMP280;62026;39.230;9.122;2022-12-18T08:46:14;102292.59;;;17.08
67599;BMP280;62026;39.230;9.122;2022-12-18T08:48:41;102300.59;;;17.08
67599;BMP280;62026;39.230;9.122;2022-12-18T08:51:07;102300.50;;;17.21
67599;BMP280;62026;39.230;9.122;2022-12-18T08:53:36;102304.41;;;17.26
67599;BMP280;62026;39.230;9.122;2022-12-18T08:56:03;102302.44;;;17.46
67599;BMP280;62026;39.230;9.122;2022-12-18T08:58:29;102301.13;;;17.55
67599;BMP280;62026;39.230;9.122;2022-12-18T09:01:05;102304.28;;;17.70
67599;BMP280;62026;39.230;9.122;2022-12-18T09:03:31;102302.19;;;17.72
67599;BMP280;62026;39.230;9.122;2022-12-18T09:05:57;102310.22;;;17.72
67599;BMP280;62026;39.230;9.122;2022-12-18T09:08:23;102311.16;;;17.84
67599;BMP280;62026;39.230;9.122;2022-12-18T09:10:50;102311.09;;;17.91
67599;BMP280;62026;39.230;9.122;2022-12-18T09:13:17;102322.78;;;18.15
67599;BMP280;62026;39.230;9.122;2022-12-18T09:15:52;102326.47;;;18.87
67599;BMP280;62026;39.230;9.122;2022-12-18T09:18:21;102320.44;;;18.91
67599;BMP280;62026;39.230;9.122;2022-12-18T09:20:47;102330.00;;;18.99
67599;BMP280;62026;39.230;9.122;2022-12-18T09:23:14;102333.91;;;18.67
67599;BMP280;62026;39.230;9.122;2022-12-18T09:25:40;102341.66;;;18.56
67599;BMP280;62026;39.230;9.122;2022-12-18T09:28:12;102338.69;;;18.28
67599;BMP280;62026;39.230;9.122;2022-12-18T09:30:51;102335.41;;;18.26
67599;BMP280;62026;39.230;9.122;2022-12-18T09:33:17;102350.63;;;18.25
67599;BMP280;62026;39.230;9.122;2022-12-18T09:35:45;102341.72;;;18.13
67599;BMP280;62026;39.230;9.122;2022-12-18T09:38:15;102345.38;;;18.19
67599;BMP280;62026;39.230;9.122;2022-12-18T09:40:53;102355.44;;;18.17
67599;BMP280;62026;39.230;9.122;2022-12-18T09:43:40;102354.84;;;18.15
67599;BMP280;62026;39.230;9.122;2022-12-18T09:46:17;102358.13;;;18.17
67599;BMP280;62026;39.230;9.122;2022-12-18T09:48:50;102344.53;;;18.18
67599;BMP280;62026;39.230;9.122;2022-12-18T09:51:54;102353.25;;;18.14
67599;BMP280;62026;39.230;9.122;2022-12-18T09:54:38;102351.16;;;18.16
67599;BMP280;62026;39.230;9.122;2022-12-18T09:57:24;102360.78;;;18.17
67599;BMP280;62026;39.230;9.122;2022-12-18T10:00:24;102362.78;;;18.46
67599;BMP280;62026;39.230;9.122;2022-12-18T10:02:58;102359.34;;;18.39
67599;BMP280;62026;39.230;9.122;2022-12-18T10:06:01;102365.44;;;18.46
67599;BMP280;62026;39.230;9.122;2022-12-18T10:11:40;102354.44;;;18.54
67599;BMP280;62026;39.230;9.122;2022-12-18T10:19:43;102349.44;;;18.76
67599;BMP280;62026;39.230;9.122;2022-12-18T10:28:14;102355.28;;;18.85
67599;BMP280;62026;39.230;9.122;2022-12-18T10:30:42;102362.28;;;18.86
67599;BMP280;62026;39.230;9.122;2022-12-18T10:33:21;102361.41;;;18.92
67599;BMP280;62026;39.230;9.122;2022-12-18T10:35:53;102356.06;;;18.92
67599;BMP280;62026;39.230;9.122;2022-12-18T10:38:28;102345.34;;;18.74
67599;BMP280;62026;39.230;9.122;2022-12-18T10:40:57;102359.53;;;18.74
67599;BMP280;62026;39.230;9.122;2022-12-18T10:43:28;102363.63;;;18.77
67599;BMP280;62026;39.230;9.122;2022-12-18T10:53:58;102354.72;;;18.64
67599;BMP280;62026;39.230;9.122;2022-12-18T10:56:27;102357.56;;;18.70
67599;BMP280;62026;39.230;9.122;2022-12-18T10:59:09;102342.88;;;18.60
67599;BMP280;62026;39.230;9.122;2022-12-18T11:01:57;102343.69;;;18.61
67599;BMP280;62026;39.230;9.122;2022-12-18T11:04:25;102339.72;;;18.63
67599;BMP280;62026;39.230;9.122;2022-12-18T11:07:08;102344.34;;;18.56
67599;BMP280;62026;39.230;9.122;2022-12-18T11:09:40;102338.69;;;18.46
67599;BMP280;62026;39.230;9.122;2022-12-18T11:12:18;102333.78;;;18.61
67599;BMP280;62026;39.230;9.122;2022-12-18T11:14:50;102327.97;;;18.64
67599;BMP280;62026;39.230;9.122;2022-12-18T11:17:35;102339.88;;;18.69
67599;BMP280;62026;39.230;9.122;2022-12-18T11:23:04;102329.63;;;18.29
67599;BMP280;62026;39.230;9.122;2022-12-18T11:25:33;102337.34;;;18.19
67599;BMP280;62026;39.230;9.122;2022-12-18T11:30:50;102309.84;;;18.12
67599;BMP280;62026;39.230;9.122;2022-12-18T11:33:35;102321.00;;;18.27
67599;BMP280;62026;39.230;9.122;2022-12-18T11:36:04;102325.53;;;18.26
67599;BMP280;62026;39.230;9.122;2022-12-18T11:38:38;102321.81;;;18.27
67599;BMP280;62026;39.230;9.122;2022-12-18T11:44:04;102328.47;;;18.00
67599;BMP280;62026;39.230;9.122;2022-12-18T11:46:37;102318.41;;;17.96
67599;BMP280;62026;39.230;9.122;2022-12-18T11:49:26;102309.75;;;18.00
67599;BMP280;62026;39.230;9.122;2022-12-18T11:54:41;102309.88;;;18.05
67599;BMP280;62026;39.230;9.122;2022-12-18T12:08:47;102314.88;;;17.83
67599;BMP280;62026;39.230;9.122;2022-12-18T12:11:42;102306.38;;;17.86
67599;BMP280;62026;39.230;9.122;2022-12-18T12:17:45;102305.81;;;17.84
67599;BMP280;62026;39.230;9.122;2022-12-18T12:25:34;102300.06;;;17.81
67599;BMP280;62026;39.230;9.122;2022-12-18T12:39:46;102293.53;;;17.77
67599;BMP280;62026;39.230;9.122;2022-12-18T12:42:35;102294.72;;;17.81
67599;BMP280;62026;39.230;9.122;2022-12-18T12:45:37;102283.66;;;17.77
67599;BMP280;62026;39.230;9.122;2022-12-18T12:48:09;102296.00;;;17.78
67599;BMP280;62026;39.230;9.122;2022-12-18T12:50:37;102282.47;;;17.73
67599;BMP280;62026;39.230;9.122;2022-12-18T12:53:18;102285.94;;;17.74
67599;BMP280;62026;39.230;9.122;2022-12-18T12:55:46;102299.69;;;17.77
67599;BMP280;62026;39.230;9.122;2022-12-18T13:01:39;102293.78;;;17.75
67599;BMP280;62026;39.230;9.122;2022-12-18T13:07:32;102282.09;;;17.70
67599;BMP280;62026;39.230;9.122;2022-12-18T13:18:28;102281.94;;;17.65
67599;BMP280;62026;39.230;9.122;2022-12-18T13:31:15;102286.25;;;17.66
67599;BMP280;62026;39.230;9.122;2022-12-18T13:34:20;102291.97;;;17.69
67599;BMP280;62026;39.230;9.122;2022-12-18T13:36:48;102287.81;;;17.73
67599;BMP280;62026;39.230;9.122;2022-12-18T13:41:45;102307.19;;;17.69
67599;BMP280;62026;39.230;9.122;2022-12-18T13:46:53;102308.44;;;17.66
67599;BMP280;62026;39.230;9.122;2022-12-18T13:49:41;102309.22;;;17.67
67599;BMP280;62026;39.230;9.122;2022-12-18T13:52:25;102317.66;;;17.70
67599;BMP280;62026;39.230;9.122;2022-12-18T13:54:55;102314.16;;;17.70
67599;BMP280;62026;39.230;9.122;2022-12-18T13:57:35;102324.84;;;17.70
67599;BMP280;62026;39.230;9.122;2022-12-18T14:00:28;102320.53;;;17.69
67599;BMP280;62026;39.230;9.122;2022-12-18T14:02:55;102310.72;;;17.63
67599;BMP280;62026;39.230;9.122;2022-12-18T14:08:17;102323.22;;;17.69
67599;BMP280;62026;39.230;9.122;2022-12-18T14:10:47;102309.31;;;17.60
67599;BMP280;62026;39.230;9.122;2022-12-18T14:13:33;102317.31;;;17.60
67599;BMP280;62026;39.230;9.122;2022-12-18T14:16:04;102327.38;;;17.58
67599;BMP280;62026;39.230;9.122;2022-12-18T14:21:25;102333.16;;;17.55
67599;BMP280;62026;39.230;9.122;2022-12-18T14:24:19;102319.41;;;17.51
67599;BMP280;62026;39.230;9.122;2022-12-18T14:26:50;102344.44;;;17.57
67599;BMP280;62026;39.230;9.122;2022-12-18T14:29:30;102332.13;;;17.56
67599;BMP280;62026;39.230;9.122;2022-12-18T14:32:19;102336.38;;;17.64
67599;BMP280;62026;39.230;9.122;2022-12-18T14:34:51;102335.16;;;17.60
67599;BMP280;62026;39.230;9.122;2022-12-18T14:37:25;102331.69;;;17.59
67599;BMP280;62026;39.230;9.122;2022-12-18T14:40:00;102343.84;;;17.55
67599;BMP280;62026;39.230;9.122;2022-12-18T14:42:30;102345.50;;;17.56
67599;BMP280;62026;39.230;9.122;2022-12-18T14:45:39;102353.69;;;17.61
67599;BMP280;62026;39.230;9.122;2022-12-18T14:48:20;102339.97;;;17.51
67599;BMP280;62026;39.230;9.122;2022-12-18T14:51:22;102352.44;;;17.57
67599;BMP280;62026;39.230;9.122;2022-12-18T14:54:00;102359.41;;;17.58
67599;BMP280;62026;39.230;9.122;2022-12-18T14:56:33;102347.38;;;17.49
67599;BMP280;62026;39.230;9.122;2022-12-18T14:59:06;102352.09;;;17.47
67599;BMP280;62026;39.230;9.122;2022-12-18T15:04:34;102347.81;;;17.46
67599;BMP280;62026;39.230;9.122;2022-12-18T15:10:01;102360.00;;;17.29
67599;BMP280;62026;39.230;9.122;2022-12-18T15:23:22;102365.72;;;17.39
67599;BMP280;62026;39.230;9.122;2022-12-18T15:26:05;102358.75;;;17.38
67599;BMP280;62026;39.230;9.122;2022-12-18T15:36:27;102371.50;;;17.29
67599;BMP280;62026;39.230;9.122;2022-12-18T15:38:56;102363.31;;;17.31
67599;BMP280;62026;39.230;9.122;2022-12-18T15:41:24;102380.38;;;17.30
67599;BMP280;62026;39.230;9.122;2022-12-18T15:43:52;102368.75;;;17.11
67599;BMP280;62026;39.230;9.122;2022-12-18T15:46:25;102382.41;;;17.28
67599;BMP280;62026;39.230;9.122;2022-12-18T15:48:55;102383.50;;;17.13
67599;BMP280;62026;39.230;9.122;2022-12-18T15:53:56;102387.53;;;17.29
67599;BMP280;62026;39.230;9.122;2022-12-18T15:56:23;102396.38;;;17.30
67599;BMP280;62026;39.230;9.122;2022-12-18T15:59:18;102394.13;;;17.27
67599;BMP280;62026;39.230;9.122;2022-12-18T16:01:50;102385.91;;;17.21
67599;BMP280;62026;39.230;9.122;2022-12-18T16:04:20;102394.56;;;17.24
67599;BMP280;62026;39.230;9.122;2022-12-18T16:06:47;102396.56;;;17.28
67599;BMP280;62026;39.230;9.122;2022-12-18T16:09:13;102390.88;;;17.18
67599;BMP280;62026;39.230;9.122;2022-12-18T16:11:43;102399.50;;;17.13
67599;BMP280;62026;39.230;9.122;2022-12-18T16:14:26;102411.19;;;17.26
67599;BMP280;62026;39.230;9.122;2022-12-18T16:16:57;102402.34;;;17.25
67599;BMP280;62026;39.230;9.122;2022-12-18T16:19:24;102415.50;;;17.27
67599;BMP280;62026;39.230;9.122;2022-12-18T16:21:53;102409.34;;;17.19
67599;BMP280;62026;39.230;9.122;2022-12-18T16:24:30;102402.38;;;17.12
67599;BMP280;62026;39.230;9.122;2022-12-18T16:26:58;102409.53;;;17.25
67599;BMP280;62026;39.230;9.122;2022-12-18T16:29:26;102405.03;;;17.18
67599;BMP280;62026;39.230;9.122;2022-12-18T16:31:58;102415.91;;;17.24
67599;BMP280;62026;39.230;9.122;2022-12-18T16:34:30;102413.09;;;17.05
67599;BMP280;62026;39.230;9.122;2022-12-18T16:37:01;102417.56;;;17.11
67599;BMP280;62026;39.230;9.122;2022-12-18T16:39:28;102429.06;;;17.18
67599;BMP280;62026;39.230;9.122;2022-12-18T16:41:54;102422.09;;;17.17
67599;BMP280;62026;39.230;9.122;2022-12-18T16:44:20;102406.75;;;17.06
67599;BMP280;62026;39.230;9.122;2022-12-18T16:46:47;102420.69;;;17.02
67599;BMP280;62026;39.230;9.122;2022-12-18T16:49:16;102425.81;;;17.16
67599;BMP280;62026;39.230;9.122;2022-12-18T16:51:43;102425.81;;;17.16
67599;BMP280;62026;39.230;9.122;2022-12-18T16:54:09;102429.31;;;17.10
67599;BMP280;62026;39.230;9.122;2022-12-18T16:56:36;102423.34;;;17.08
67599;BMP280;62026;39.230;9.122;2022-12-18T16:59:03;102429.50;;;17.15
67599;BMP280;62026;39.230;9.122;2022-12-18T17:01:31;102432.56;;;17.12
67599;BMP280;62026;39.230;9.122;2022-12-18T17:04:00;102433.00;;;17.16
67599;BMP280;62026;39.230;9.122;2022-12-18T17:06:30;102430.72;;;17.13